Polaris Voyager — C6AP4 — position and weather

sailwx.info

Track history (hours):
 
Tides and Currents Weather Stations Pressure Air Temp Water Temp Dewpoint Dewpoint Depression Visibility Wind Speed Wind Dir Waves Ship Positions

Polaris Voyager

Last reported at 2017-Oct-19 08:09 UTC. Time now 2017-Oct-19 09:02 UTC.
Position N 33°44' W 118°12'.

Length 276 m; draft 12.3 m.

Type: Ship (hazmat cat A). MMSI: 311000112.

Date/timePositionNaut miles runAvg speedWind from/ knotsBaromVisibWave heightAir tempDewpointWater temp
2017-Oct-19 08:09N 33°44' W 118°12'0 0.3
2017-Oct-19 07:57N 33°44' W 118°12'0 0.1
2017-Oct-19 07:27N 33°44' W 118°12'0 0.2
2017-Oct-19 06:57N 33°44' W 118°12'0 0.1
2017-Oct-19 06:21N 33°44' W 118°12'0 0.0
2017-Oct-19 05:51N 33°44' W 118°12'0 0.0
2017-Oct-19 05:21N 33°44' W 118°12'0 0.0
2017-Oct-19 04:45N 33°44' W 118°12'0 0.2
2017-Oct-19 04:27N 33°44' W 118°12'0 0.1
2017-Oct-19 03:57N 33°44' W 118°12'0 0.1
2017-Oct-19 03:27N 33°44' W 118°12'0 0.0
2017-Oct-19 02:57N 33°44' W 118°12'0 0.2
2017-Oct-19 02:27N 33°44' W 118°12'0 0.2
2017-Oct-19 01:57N 33°44' W 118°12'0 0.2
2017-Oct-19 01:27N 33°44' W 118°12'0 0.1
2017-Oct-19 00:57N 33°44' W 118°12'0 0.1
2017-Oct-19 00:31N 33°44' W 118°12'2 3.1
2017-Oct-19 00:00N 33°43' W 118°11'3 6.1
2017-Oct-18 23:30N 33°40' W 118°10'4 8.2
2017-Oct-18 23:01N 33°35' W 118°10'511.0
2017-Oct-18 22:31N 33°30' W 118°07'4 8.7
2017-Oct-18 22:00N 33°26' W 118°06'5 9.9
2017-Oct-18 21:30N 33°21' W 118°04'611.0
2017-Oct-18 21:00N 33°17' W 118°00'511.1
2017-Oct-18 20:31N 33°13' W 117°55'611.1
2017-Oct-18 20:01N 33°09' W 117°51'3 5.3
2017-Oct-18 19:30N 33°07' W 117°50'0 0.4
2017-Oct-18 19:01N 33°07' W 117°50'0 0.3
2017-Oct-18 18:31N 33°06' W 117°50'0 0.2
2017-Oct-18 18:01N 33°06' W 117°50'0 1.0
2017-Oct-18 17:30N 33°06' W 117°50'1 1.3
2017-Oct-18 17:00N 33°05' W 117°49'1 1.2
2017-Oct-18 16:31N 33°05' W 117°49'0 0.9
2017-Oct-18 16:00N 33°05' W 117°48'0 0.9
2017-Oct-18 15:30N 33°04' W 117°48'0 0.8
2017-Oct-18 15:00N 33°04' W 117°48'1 0.8
2017-Oct-18 14:01N 33°03' W 117°47'0 0.9
2017-Oct-18 13:30N 33°03' W 117°47'1 1.1
2017-Oct-18 13:00N 33°02' W 117°47'0 0.9
2017-Oct-18 12:30N 33°02' W 117°46'0 0.7
2017-Oct-18 12:00N 33°02' W 117°46'0 0.6
2017-Oct-18 11:30N 33°01' W 117°46'0 0.6
2017-Oct-18 11:00N 33°01' W 117°46'0 0.7
2017-Oct-18 10:30N 33°01' W 117°46'0 0.8
2017-Oct-18 10:00N 33°00' W 117°46'0 0.7
2017-Oct-18 09:30N 33°00' W 117°45'0 0.7
2017-Oct-18 09:00N 32°60' W 117°45'0 0.9
2017-Oct-18 08:30N 32°59' W 117°45'0 0.8
2017-Oct-18 08:01N 32°59' W 117°45'1 1.1
2017-Oct-18 07:30N 32°59' W 117°44'1 1.3
2017-Oct-18 07:00N 32°58' W 117°45'1 1.1
2017-Oct-18 06:31N 32°58' W 117°45'0 1.0
2017-Oct-18 06:01N 32°58' W 117°46'1 1.1
2017-Oct-18 05:30N 32°57' W 117°46'0 0.9
2017-Oct-18 05:01N 32°57' W 117°47'0 0.9
2017-Oct-18 04:30N 32°57' W 117°47'0 0.7
2017-Oct-18 04:00N 32°56' W 117°47'0 0.9
2017-Oct-18 03:31N 32°56' W 117°48'0 1.0
2017-Oct-18 03:01N 32°56' W 117°48'0 0.8
2017-Oct-18 02:31N 32°56' W 117°48'0 0.4
2017-Oct-18 02:01N 32°56' W 117°49'0 0.6
2017-Oct-18 01:30N 32°56' W 117°49'0 0.6
2017-Oct-18 01:01N 32°56' W 117°49'0 0.7
2017-Oct-18 00:31N 32°57' W 117°49'0 0.7
2017-Oct-18 00:01N 32°57' W 117°49'0 0.7
2017-Oct-17 23:31N 32°57' W 117°49'0 0.8
2017-Oct-17 23:00N 32°58' W 117°49'0 0.9
2017-Oct-17 22:30N 32°58' W 117°49'0 0.9
2017-Oct-17 22:01N 32°59' W 117°50'0 0.9
2017-Oct-17 21:30N 32°59' W 117°50'0 0.9
2017-Oct-17 21:00N 32°59' W 117°50'1 1.0
2017-Oct-17 20:30N 32°60' W 117°51'0 0.9
2017-Oct-17 20:01N 33°00' W 117°51'1 1.9
2017-Oct-17 19:30N 33°01' W 117°52'2 3.3
2017-Oct-17 19:01N 33°02' W 117°53'2 4.0
2017-Oct-17 18:30N 33°04' W 117°54'2 4.3
2017-Oct-17 18:01N 33°06' W 117°56'2 4.6
2017-Oct-17 17:30N 33°07' W 117°57'3 5.8
2017-Oct-17 17:01N 33°10' W 117°59'2 3.1
2017-Oct-17 16:30N 33°11' W 117°59'0 0.3
2017-Oct-17 16:00N 33°11' W 117°59'0 0.3
2017-Oct-17 15:31N 33°11' W 117°60'0 0.8
2017-Oct-17 15:01N 33°11' W 117°59'510.9
2017-Oct-17 14:30N 33°10' W 118°06'510.1
2017-Oct-17 14:01N 33°09' W 118°12'5 9.4
2017-Oct-17 13:30N 33°08' W 118°17'5 9.3
2017-Oct-17 13:00N 33°08' W 118°23'5 9.3
2017-Oct-17 12:31N 33°08' W 118°28'510.5
2017-Oct-17 12:00N 33°11' W 118°33'510.3
2017-Oct-17 11:31N 33°13' W 118°39'510.0
2017-Oct-17 11:00N 33°14' W 118°45'510.0
2017-Oct-17 10:31N 33°15' W 118°51'510.6
2017-Oct-17 10:00N 33°15' W 118°57'611.9
2017-Oct-17 09:31N 33°15' W 119°04'611.7
2017-Oct-17 09:00N 33°17' W 119°11'612.8
2017-Oct-17 08:30N 33°22' W 119°15'612.2
2017-Oct-17 08:00N 33°27' W 119°20'612.2
2017-Oct-17 07:31N 33°30' W 119°26'612.2
2017-Oct-17 07:00N 33°34' W 119°32'611.5
2017-Oct-17 06:30N 33°36' W 119°39'611.5
2017-Oct-17 06:00N 33°36' W 119°46'510.6
2017-Oct-17 05:31N 33°36' W 119°52'612.2
2017-Oct-17 05:00N 33°36' W 119°60'815.6
2017-Oct-17 04:30N 33°36' W 120°09'815.5
2017-Oct-17 03:57N 33°37' W 120°19'715.5
2017-Oct-17 03:31N 33°42' W 120°25'815.6
2017-Oct-17 03:00N 33°47' W 120°33'815.6
2017-Oct-17 02:30N 33°51' W 120°40'815.8
2017-Oct-17 02:00N 33°55' W 120°48'815.7
2017-Oct-17 01:30N 34°02' W 120°54'816.2
2017-Oct-17 01:01N 34°08' W 120°59'816.0
2017-Oct-17 00:30N 34°15' W 121°04'815.4
2017-Oct-17 00:00N 34°22' W 121°08'815.2
2017-Oct-16 23:30N 34°29' W 121°13'815.8
2017-Oct-16 23:00N 34°35' W 121°18'815.0
2017-Oct-16 22:30N 34°42' W 121°23'612.6
2017-Oct-16 22:01N 34°47' W 121°27'815.5
2017-Oct-16 21:30N 34°54' W 121°31'815.5
2017-Oct-16 21:00N 35°01' W 121°36'815.7
2017-Oct-16 20:31N 35°07' W 121°41'815.6
2017-Oct-16 20:00N 35°14' W 121°46'815.4
2017-Oct-16 19:31N 35°21' W 121°51'815.4
2017-Oct-16 19:00N 35°27' W 121°56'815.4
2017-Oct-16 18:31N 35°34' W 122°00'815.5
2017-Oct-16 18:01N 35°40' W 122°05'4014.8
2017-Oct-16 15:18N 36°15' W 122°30'1316.2
2017-Oct-16 14:31N 36°26' W 122°37'116.6
2017-Oct-16 14:29N 36°27' W 122°37'1716.0
2017-Oct-16 13:24N 36°43' W 122°45'715.8
2017-Oct-16 12:57N 36°50' W 122°48'815.6
2017-Oct-16 12:25N 36°57' W 122°52'715.9
2017-Oct-16 12:00N 37°03' W 122°55'815.6
2017-Oct-16 11:30N 37°11' W 122°59'815.2
2017-Oct-16 11:00N 37°18' W 123°02'815.3
2017-Oct-16 10:30N 37°25' W 123°06'713.3
2017-Oct-16 10:00N 37°31' W 123°08'713.8
2017-Oct-16 09:30N 37°35' W 123°01'713.9
2017-Oct-16 09:00N 37°39' W 122°54'713.8
2017-Oct-16 08:30N 37°43' W 122°47'511.0
2017-Oct-16 08:00N 37°46' W 122°41'612.7
2017-Oct-16 07:30N 37°48' W 122°33'713.6
2017-Oct-16 07:00N 37°51' W 122°25'4 7.9
2017-Oct-16 06:30N 37°55' W 122°25'1 2.1
2017-Oct-16 05:59N 37°56' W 122°25'0 0.0
2017-Oct-16 05:29N 37°56' W 122°25'0 0.0
2017-Oct-16 04:59N 37°56' W 122°25'0 0.0
2017-Oct-16 04:29N 37°56' W 122°25'0 0.0
2017-Oct-16 03:59N 37°56' W 122°25'0 0.0
2017-Oct-16 03:29N 37°56' W 122°25'0 0.0
2017-Oct-16 02:59N 37°56' W 122°25'0 0.0
2017-Oct-16 02:29N 37°56' W 122°25'0 0.0
2017-Oct-16 01:59N 37°56' W 122°25'0 0.0
2017-Oct-16 01:29N 37°56' W 122°25'0 0.0
2017-Oct-16 00:59N 37°56' W 122°25'0 0.0
2017-Oct-16 00:26N 37°56' W 122°25'0 0.0
2017-Oct-15 23:59N 37°56' W 122°25'0 0.0
2017-Oct-15 23:29N 37°56' W 122°25'0 0.0
2017-Oct-15 22:59N 37°56' W 122°25'0 0.0
2017-Oct-15 22:29N 37°56' W 122°25'0 0.0
2017-Oct-15 21:59N 37°56' W 122°25'0 0.0
2017-Oct-15 21:29N 37°56' W 122°25'0 0.0
2017-Oct-15 20:59N 37°56' W 122°25'0 0.0
2017-Oct-15 19:32N 37°56' W 122°25'0 0.0
2017-Oct-15 19:26N 37°56' W 122°25'0 0.0
2017-Oct-15 11:50N 37°56' W 122°25'0 0.0
2017-Oct-15 11:20N 37°56' W 122°25'0 0.0
2017-Oct-15 10:08N 37°56' W 122°25'0 0.0
2017-Oct-15 07:02N 37°56' W 122°25'0 0.0
2017-Oct-15 06:56N 37°56' W 122°25'0 0.0
2017-Oct-15 06:23N 37°56' W 122°25'0 0.0
2017-Oct-15 05:56N 37°56' W 122°25'0 0.3
2017-Oct-15 05:31N 37°55' W 122°25'2 3.4
2017-Oct-15 05:00N 37°54' W 122°25'4 8.2
2017-Oct-15 04:31N 37°50' W 122°24'3 6.8
2017-Oct-15 04:00N 37°49' W 122°28'510.7
2017-Oct-15 03:31N 37°47' W 122°35'611.3
2017-Oct-15 03:01N 37°45' W 122°41'4 8.8
2017-Oct-15 02:31N 37°42' W 122°45'4 8.4
2017-Oct-15 02:01N 37°39' W 122°50'4 8.9
2017-Oct-15 01:30N 37°37' W 122°55'4 8.2
2017-Oct-15 01:01N 37°35' W 122°59'5 9.0
2017-Oct-15 00:30N 37°32' W 123°03'4 8.3
2017-Oct-15 00:00N 37°29' W 123°06'2 4.4
2017-Oct-14 23:30N 37°26' W 123°07'4 7.1
2017-Oct-14 23:00N 37°23' W 123°08'5 9.4
2017-Oct-14 22:30N 37°19' W 123°10'5 9.7
2017-Oct-14 22:00N 37°14' W 123°09'611.6
2017-Oct-14 21:30N 37°08' W 123°09'611.3
2017-Oct-14 21:00N 37°02' W 123°08'611.3
2017-Oct-14 20:30N 36°57' W 123°07'611.3
2017-Oct-14 20:00N 36°51' W 123°07'611.1
2017-Oct-14 19:30N 36°46' W 123°06'1211.1
2017-Oct-14 18:23N 36°33' W 123°04'4 9.7
2017-Oct-14 18:00N 36°30' W 123°03'813.8
2017-Oct-14 17:23N 36°22' W 122°59'613.9
2017-Oct-14 16:59N 36°16' W 122°57'1313.7
2017-Oct-14 16:01N 36°04' W 122°52'013.5
2017-Oct-14 16:00N 36°04' W 122°52'713.3
2017-Oct-14 15:30N 35°58' W 122°48'713.3
2017-Oct-14 15:00N 35°52' W 122°44'713.3
2017-Oct-14 14:30N 35°46' W 122°40'713.1
2017-Oct-14 14:00N 35°40' W 122°36'713.3
2017-Oct-14 13:30N 35°35' W 122°32'713.8
2017-Oct-14 13:01N 35°29' W 122°28'713.7
2017-Oct-14 12:31N 35°23' W 122°24'713.7
2017-Oct-14 12:00N 35°17' W 122°20'713.7
2017-Oct-14 11:30N 35°11' W 122°15'713.8
2017-Oct-14 11:00N 35°05' W 122°11'714.0
2017-Oct-14 10:30N 34°59' W 122°07'714.1
2017-Oct-14 10:00N 34°52' W 122°03'814.2
2017-Oct-14 09:26N 34°45' W 121°59'613.8
2017-Oct-14 09:00N 34°40' W 121°55'714.2
2017-Oct-14 08:30N 34°36' W 121°48'713.9
2017-Oct-14 08:00N 34°32' W 121°41'713.9
2017-Oct-14 07:30N 34°28' W 121°34'713.7
2017-Oct-14 07:00N 34°24' W 121°27'713.4
2017-Oct-14 06:30N 34°20' W 121°21'913.5
2017-Oct-14 05:52N 34°14' W 121°13'513.6
2017-Oct-14 05:29N 34°11' W 121°08'713.6
2017-Oct-14 05:00N 34°07' W 121°02'713.2
2017-Oct-14 04:30N 34°03' W 120°55'712.9
2017-Oct-14 03:59N 33°59' W 120°49'613.1
2017-Oct-14 03:30N 33°55' W 120°43'813.3
2017-Oct-14 02:54N 33°51' W 120°35'513.6
2017-Oct-14 02:30N 33°48' W 120°29'713.6
2017-Oct-14 01:59N 33°45' W 120°21'713.7
2017-Oct-14 01:31N 33°42' W 120°14'713.9
2017-Oct-14 01:00N 33°40' W 120°06'714.2
2017-Oct-14 00:30N 33°38' W 119°58'714.5
2017-Oct-14 00:01N 33°37' W 119°50'914.8
2017-Oct-13 23:24N 33°34' W 119°39'614.5
2017-Oct-13 23:00N 33°32' W 119°33'815.1
2017-Oct-13 22:31N 33°30' W 119°24'612.8
2017-Oct-13 22:00N 33°26' W 119°19'714.2
2017-Oct-13 21:31N 33°20' W 119°14'714.6
2017-Oct-13 21:00N 33°16' W 119°07'714.8
2017-Oct-13 20:30N 33°15' W 118°58'612.6
2017-Oct-13 20:00N 33°14' W 118°50'611.6
2017-Oct-13 19:30N 33°14' W 118°43'611.4
2017-Oct-13 19:01N 33°12' W 118°37'611.7
2017-Oct-13 18:31N 33°10' W 118°30'611.8
2017-Oct-13 18:01N 33°08' W 118°24'611.5
2017-Oct-13 17:30N 33°06' W 118°17'611.4
2017-Oct-13 17:01N 33°06' W 118°10'611.4
2017-Oct-13 16:31N 33°05' W 118°04'611.2
2017-Oct-13 16:00N 33°04' W 117°57'3 6.0
2017-Oct-13 15:30N 33°04' W 117°54'2 3.2
2017-Oct-13 15:00N 33°05' W 117°52'1 2.6
2017-Oct-13 14:30N 33°06' W 117°51'0 0.4
2017-Oct-13 14:00N 33°06' W 117°51'1 1.5
2017-Oct-13 13:30N 33°05' W 117°50'1 1.0
2017-Oct-13 13:00N 33°05' W 117°50'0 0.9
2017-Oct-13 12:30N 33°04' W 117°50'0 1.0
2017-Oct-13 12:01N 33°04' W 117°50'1 1.1
2017-Oct-13 11:30N 33°03' W 117°50'1 1.1
2017-Oct-13 11:00N 33°03' W 117°50'1 1.0
2017-Oct-13 10:31N 33°02' W 117°50'1 1.0
2017-Oct-13 10:00N 33°02' W 117°50'0 1.0
2017-Oct-13 09:30N 33°01' W 117°50'0 1.0
2017-Oct-13 09:01N 33°01' W 117°50'0 1.0
2017-Oct-13 08:31N 33°00' W 117°49'0 0.9
2017-Oct-13 08:01N 32°60' W 117°49'0 0.9
2017-Oct-13 07:30N 32°59' W 117°49'0 0.9
2017-Oct-13 07:00N 32°59' W 117°48'0 0.9
2017-Oct-13 06:31N 32°59' W 117°48'0 0.8
2017-Oct-13 06:00N 32°58' W 117°48'0 1.0
2017-Oct-13 05:31N 32°58' W 117°48'0 0.8
2017-Oct-13 05:00N 32°58' W 117°47'0 0.6
2017-Oct-13 04:30N 32°58' W 117°47'0 0.6
2017-Oct-13 04:01N 32°57' W 117°47'0 0.4
2017-Oct-13 03:30N 32°57' W 117°47'0 0.5
2017-Oct-13 03:00N 32°57' W 117°47'0 0.5
2017-Oct-13 02:30N 32°57' W 117°48'0 0.5
2017-Oct-13 02:00N 32°57' W 117°48'0 0.8
2017-Oct-13 01:30N 32°58' W 117°48'0 0.8
2017-Oct-13 01:01N 32°58' W 117°49'0 0.8
2017-Oct-13 00:30N 32°58' W 117°49'0 0.7
2017-Oct-13 00:00N 32°59' W 117°49'0 0.7
2017-Oct-12 23:30N 32°59' W 117°49'0 0.7
2017-Oct-12 23:00N 32°59' W 117°49'0 0.6
2017-Oct-12 22:30N 32°60' W 117°50'0 0.7
2017-Oct-12 22:01N 32°60' W 117°50'0 0.7
2017-Oct-12 21:30N 33°00' W 117°50'0 0.6
2017-Oct-12 21:00N 33°00' W 117°50'0 0.6
2017-Oct-12 20:30N 33°01' W 117°51'1 1.3
2017-Oct-12 20:00N 33°01' W 117°51'1 2.8
2017-Oct-12 19:31N 33°02' W 117°52'2 3.9
2017-Oct-12 19:00N 33°04' W 117°53'2 4.4
2017-Oct-12 18:31N 33°06' W 117°55'2 4.9
2017-Oct-12 18:00N 33°08' W 117°56'3 6.2
2017-Oct-12 17:31N 33°10' W 117°59'1 2.2
2017-Oct-12 17:01N 33°11' W 117°59'0 0.5
2017-Oct-12 16:31N 33°11' W 117°59'0 0.6
2017-Oct-12 16:01N 33°11' W 117°59'1 2.7
2017-Oct-12 15:30N 33°12' W 117°58'1 2.4
2017-Oct-12 15:00N 33°12' W 117°57'0 0.2
2017-Oct-12 14:30N 33°12' W 117°56'5 9.3
2017-Oct-12 14:01N 33°13' W 117°51'4 8.2
2017-Oct-12 13:30N 33°14' W 117°46'0 0.8
2017-Oct-12 13:00N 33°14' W 117°47'0 0.6
2017-Oct-12 12:31N 33°13' W 117°47'0 0.6
2017-Oct-12 12:01N 33°13' W 117°47'0 0.7
2017-Oct-12 11:30N 33°13' W 117°47'0 0.6
2017-Oct-12 11:00N 33°13' W 117°47'0 0.5
2017-Oct-12 10:30N 33°12' W 117°47'0 0.3
2017-Oct-12 10:00N 33°12' W 117°47'0 0.4
2017-Oct-12 09:31N 33°12' W 117°47'0 0.2
2017-Oct-12 09:01N 33°12' W 117°47'0 0.3
2017-Oct-12 08:30N 33°12' W 117°47'0 0.3
2017-Oct-12 08:01N 33°12' W 117°47'0 0.3
2017-Oct-12 07:31N 33°12' W 117°47'0 0.3
2017-Oct-12 07:00N 33°11' W 117°47'0 0.4
2017-Oct-12 06:30N 33°11' W 117°47'0 0.3
2017-Oct-12 06:00N 33°11' W 117°47'0 0.4
2017-Oct-12 05:31N 33°11' W 117°47'0 0.3
2017-Oct-12 05:00N 33°11' W 117°48'0 0.4
2017-Oct-12 04:30N 33°11' W 117°48'0 0.5
2017-Oct-12 04:00N 33°11' W 117°48'0 0.6
2017-Oct-12 03:30N 33°10' W 117°48'0 0.8
2017-Oct-12 03:01N 33°10' W 117°49'0 0.6
2017-Oct-12 02:30N 33°10' W 117°49'0 0.9
2017-Oct-12 02:01N 33°10' W 117°50'0 0.8
2017-Oct-12 01:30N 33°10' W 117°50'0 0.9
2017-Oct-12 01:01N 33°10' W 117°50'1 1.1
2017-Oct-12 00:31N 33°09' W 117°51'1 2.3
2017-Oct-12 00:00N 33°09' W 117°50'611.2
2017-Oct-11 23:30N 33°10' W 117°43'2 4.9
2017-Oct-11 23:00N 33°10' W 117°40'0 0.3
2017-Oct-11 22:30N 33°10' W 117°40'0 0.3
2017-Oct-11 22:00N 33°10' W 117°40'0 0.4
2017-Oct-11 21:31N 33°10' W 117°41'0 0.5
2017-Oct-11 21:00N 33°10' W 117°41'0 0.5
2017-Oct-11 20:30N 33°11' W 117°41'0 0.4
2017-Oct-11 20:01N 33°11' W 117°41'0 0.6
2017-Oct-11 19:30N 33°11' W 117°42'0 0.6
2017-Oct-11 19:01N 33°11' W 117°42'0 0.6
2017-Oct-11 18:30N 33°11' W 117°43'0 0.7
2017-Oct-11 18:01N 33°11' W 117°43'0 0.8
2017-Oct-11 17:30N 33°11' W 117°43'0 0.8
2017-Oct-11 17:01N 33°11' W 117°44'39 2.3
2017-Oct-11 00:00N 33°10' W 118°31'611.6
2017-Oct-10 23:30N 33°12' W 118°37'510.9
2017-Oct-10 23:00N 33°14' W 118°43'611.2
2017-Oct-10 22:30N 33°14' W 118°50'510.1
2017-Oct-10 22:00N 33°15' W 118°56'510.4
2017-Oct-10 21:30N 33°15' W 119°02'611.8
2017-Oct-10 21:00N 33°16' W 119°09'611.3
2017-Oct-10 20:30N 33°20' W 119°14'611.1
2017-Oct-10 20:00N 33°24' W 119°18'611.2
2017-Oct-10 19:30N 33°28' W 119°23'713.1
2017-Oct-10 19:00N 33°31' W 119°29'815.6
2017-Oct-10 18:30N 33°35' W 119°38'815.8
2017-Oct-10 18:00N 33°36' W 119°47'714.6
2017-Oct-10 17:30N 33°37' W 119°56'612.3
2017-Oct-10 17:00N 33°38' W 120°03'612.4
2017-Oct-10 16:31N 33°38' W 120°11'611.6
2017-Oct-10 16:00N 33°38' W 120°18'4 8.5
2017-Oct-10 15:30N 33°41' W 120°22'713.4
2017-Oct-10 15:00N 33°44' W 120°29'1515.3
2017-Oct-10 14:00N 33°53' W 120°44'714.9
2017-Oct-10 13:30N 33°58' W 120°51'815.5
2017-Oct-10 13:00N 34°05' W 120°55'815.7
2017-Oct-10 12:30N 34°12' W 120°60'815.3
2017-Oct-10 12:00N 34°18' W 121°04'815.2
2017-Oct-10 11:30N 34°25' W 121°09'815.4
2017-Oct-10 11:00N 34°31' W 121°14'815.5
2017-Oct-10 10:30N 34°38' W 121°19'815.3
2017-Oct-10 10:00N 34°44' W 121°24'815.7
2017-Oct-10 09:30N 34°51' W 121°28'815.1
2017-Oct-10 09:00N 34°57' W 121°34'815.9
2017-Oct-10 08:31N 35°04' W 121°39'714.9
2017-Oct-10 08:00N 35°10' W 121°44'714.7
2017-Oct-10 07:30N 35°16' W 121°49'815.3
2017-Oct-10 07:00N 35°23' W 121°53'815.7
2017-Oct-10 06:30N 35°30' W 121°58'815.8
2017-Oct-10 06:00N 35°37' W 122°03'815.5
2017-Oct-10 05:30N 35°43' W 122°08'3815.4
2017-Oct-10 03:03N 36°16' W 122°31'215.4
2017-Oct-10 02:54N 36°18' W 122°32'615.7
2017-Oct-10 02:30N 36°24' W 122°35'715.0
2017-Oct-10 02:00N 36°31' W 122°39'3114.5
2017-Oct-09 23:52N 36°60' W 122°53'513.7
2017-Oct-09 23:30N 37°04' W 122°55'714.0
2017-Oct-09 23:00N 37°11' W 122°59'714.1
2017-Oct-09 22:30N 37°17' W 123°02'714.3
2017-Oct-09 22:00N 37°24' W 123°05'714.2
2017-Oct-09 21:31N 37°31' W 123°08'510.8
2017-Oct-09 21:01N 37°35' W 123°03'712.9
2017-Oct-09 20:30N 37°38' W 122°56'612.4
2017-Oct-09 20:00N 37°41' W 122°49'611.6
2017-Oct-09 19:30N 37°45' W 122°44'3 5.6
2017-Oct-09 19:00N 37°46' W 122°40'611.1
2017-Oct-09 18:30N 37°47' W 122°34'611.1
2017-Oct-09 18:00N 37°50' W 122°27'4 8.0
2017-Oct-09 17:30N 37°54' W 122°25'2 3.8
2017-Oct-09 16:59N 37°56' W 122°25'0 0.0
2017-Oct-09 16:29N 37°56' W 122°25'0 0.0
2017-Oct-09 15:50N 37°56' W 122°25'0 0.0
2017-Oct-09 15:20N 37°56' W 122°25'0 0.0
2017-Oct-09 14:50N 37°56' W 122°25'0 0.0
2017-Oct-09 14:23N 37°56' W 122°25'0 0.0
2017-Oct-09 13:59N 37°56' W 122°25'0 0.0
2017-Oct-09 13:29N 37°56' W 122°25'0 0.0
2017-Oct-09 12:59N 37°56' W 122°25'0 0.0
2017-Oct-09 12:29N 37°56' W 122°25'0 0.0
2017-Oct-09 11:59N 37°56' W 122°25'0 0.0
2017-Oct-09 11:20N 37°56' W 122°25'0 0.0
2017-Oct-09 10:44N 37°56' W 122°25'0 0.0
2017-Oct-09 10:29N 37°56' W 122°25'0 0.0
2017-Oct-09 09:59N 37°56' W 122°25'0 0.0
2017-Oct-09 09:29N 37°56' W 122°25'0 0.0
2017-Oct-09 08:59N 37°56' W 122°25'0 0.0
2017-Oct-09 08:26N 37°56' W 122°25'  
Track history (hours):
 
Tides and Currents Weather Stations Pressure Air Temp Water Temp Dewpoint Dewpoint Depression Visibility Wind Speed Wind Dir Waves Ship Positions

Polaris Voyager

Last reported at 2017-Oct-19 08:09 UTC. Time now 2017-Oct-19 09:02 UTC.
Position N 33°44' W 118°12'.

Length 276 m; draft 12.3 m.

Type: Ship (hazmat cat A). MMSI: 311000112.

Date/timePositionNaut miles runAvg speedWind from/ knotsBaromVisibWave heightAir tempDewpointWater temp
2017-Oct-19 08:09N 33°44' W 118°12'0 0.3
2017-Oct-19 07:57N 33°44' W 118°12'0 0.1
2017-Oct-19 07:27N 33°44' W 118°12'0 0.2
2017-Oct-19 06:57N 33°44' W 118°12'0 0.1
2017-Oct-19 06:21N 33°44' W 118°12'0 0.0
2017-Oct-19 05:51N 33°44' W 118°12'0 0.0
2017-Oct-19 05:21N 33°44' W 118°12'0 0.0
2017-Oct-19 04:45N 33°44' W 118°12'0 0.2
2017-Oct-19 04:27N 33°44' W 118°12'0 0.1
2017-Oct-19 03:57N 33°44' W 118°12'0 0.1
2017-Oct-19 03:27N 33°44' W 118°12'0 0.0
2017-Oct-19 02:57N 33°44' W 118°12'0 0.2
2017-Oct-19 02:27N 33°44' W 118°12'0 0.2
2017-Oct-19 01:57N 33°44' W 118°12'0 0.2
2017-Oct-19 01:27N 33°44' W 118°12'0 0.1
2017-Oct-19 00:57N 33°44' W 118°12'0 0.1
2017-Oct-19 00:31N 33°44' W 118°12'2 3.1
2017-Oct-19 00:00N 33°43' W 118°11'3 6.1
2017-Oct-18 23:30N 33°40' W 118°10'4 8.2
2017-Oct-18 23:01N 33°35' W 118°10'511.0
2017-Oct-18 22:31N 33°30' W 118°07'4 8.7
2017-Oct-18 22:00N 33°26' W 118°06'5 9.9
2017-Oct-18 21:30N 33°21' W 118°04'611.0
2017-Oct-18 21:00N 33°17' W 118°00'511.1
2017-Oct-18 20:31N 33°13' W 117°55'611.1
2017-Oct-18 20:01N 33°09' W 117°51'3 5.3
2017-Oct-18 19:30N 33°07' W 117°50'0 0.4
2017-Oct-18 19:01N 33°07' W 117°50'0 0.3
2017-Oct-18 18:31N 33°06' W 117°50'0 0.2
2017-Oct-18 18:01N 33°06' W 117°50'0 1.0
2017-Oct-18 17:30N 33°06' W 117°50'1 1.3
2017-Oct-18 17:00N 33°05' W 117°49'1 1.2
2017-Oct-18 16:31N 33°05' W 117°49'0 0.9
2017-Oct-18 16:00N 33°05' W 117°48'0 0.9
2017-Oct-18 15:30N 33°04' W 117°48'0 0.8
2017-Oct-18 15:00N 33°04' W 117°48'1 0.8
2017-Oct-18 14:01N 33°03' W 117°47'0 0.9
2017-Oct-18 13:30N 33°03' W 117°47'1 1.1
2017-Oct-18 13:00N 33°02' W 117°47'0 0.9
2017-Oct-18 12:30N 33°02' W 117°46'0 0.7
2017-Oct-18 12:00N 33°02' W 117°46'0 0.6
2017-Oct-18 11:30N 33°01' W 117°46'0 0.6
2017-Oct-18 11:00N 33°01' W 117°46'0 0.7
2017-Oct-18 10:30N 33°01' W 117°46'0 0.8
2017-Oct-18 10:00N 33°00' W 117°46'0 0.7
2017-Oct-18 09:30N 33°00' W 117°45'0 0.7
2017-Oct-18 09:00N 32°60' W 117°45'0 0.9
2017-Oct-18 08:30N 32°59' W 117°45'0 0.8
2017-Oct-18 08:01N 32°59' W 117°45'1 1.1
2017-Oct-18 07:30N 32°59' W 117°44'1 1.3
2017-Oct-18 07:00N 32°58' W 117°45'1 1.1
2017-Oct-18 06:31N 32°58' W 117°45'0 1.0
2017-Oct-18 06:01N 32°58' W 117°46'1 1.1
2017-Oct-18 05:30N 32°57' W 117°46'0 0.9
2017-Oct-18 05:01N 32°57' W 117°47'0 0.9
2017-Oct-18 04:30N 32°57' W 117°47'0 0.7
2017-Oct-18 04:00N 32°56' W 117°47'0 0.9
2017-Oct-18 03:31N 32°56' W 117°48'0 1.0
2017-Oct-18 03:01N 32°56' W 117°48'0 0.8
2017-Oct-18 02:31N 32°56' W 117°48'0 0.4
2017-Oct-18 02:01N 32°56' W 117°49'0 0.6
2017-Oct-18 01:30N 32°56' W 117°49'0 0.6
2017-Oct-18 01:01N 32°56' W 117°49'0 0.7
2017-Oct-18 00:31N 32°57' W 117°49'0 0.7
2017-Oct-18 00:01N 32°57' W 117°49'0 0.7
2017-Oct-17 23:31N 32°57' W 117°49'0 0.8
2017-Oct-17 23:00N 32°58' W 117°49'0 0.9
2017-Oct-17 22:30N 32°58' W 117°49'0 0.9
2017-Oct-17 22:01N 32°59' W 117°50'0 0.9
2017-Oct-17 21:30N 32°59' W 117°50'0 0.9
2017-Oct-17 21:00N 32°59' W 117°50'1 1.0
2017-Oct-17 20:30N 32°60' W 117°51'0 0.9
2017-Oct-17 20:01N 33°00' W 117°51'1 1.9
2017-Oct-17 19:30N 33°01' W 117°52'2 3.3
2017-Oct-17 19:01N 33°02' W 117°53'2 4.0
2017-Oct-17 18:30N 33°04' W 117°54'2 4.3
2017-Oct-17 18:01N 33°06' W 117°56'2 4.6
2017-Oct-17 17:30N 33°07' W 117°57'3 5.8
2017-Oct-17 17:01N 33°10' W 117°59'2 3.1
2017-Oct-17 16:30N 33°11' W 117°59'0 0.3
2017-Oct-17 16:00N 33°11' W 117°59'0 0.3
2017-Oct-17 15:31N 33°11' W 117°60'0 0.8
2017-Oct-17 15:01N 33°11' W 117°59'510.9
2017-Oct-17 14:30N 33°10' W 118°06'510.1
2017-Oct-17 14:01N 33°09' W 118°12'5 9.4
2017-Oct-17 13:30N 33°08' W 118°17'5 9.3
2017-Oct-17 13:00N 33°08' W 118°23'5 9.3
2017-Oct-17 12:31N 33°08' W 118°28'510.5
2017-Oct-17 12:00N 33°11' W 118°33'510.3
2017-Oct-17 11:31N 33°13' W 118°39'510.0
2017-Oct-17 11:00N 33°14' W 118°45'510.0
2017-Oct-17 10:31N 33°15' W 118°51'510.6
2017-Oct-17 10:00N 33°15' W 118°57'611.9
2017-Oct-17 09:31N 33°15' W 119°04'611.7
2017-Oct-17 09:00N 33°17' W 119°11'612.8
2017-Oct-17 08:30N 33°22' W 119°15'612.2
2017-Oct-17 08:00N 33°27' W 119°20'612.2
2017-Oct-17 07:31N 33°30' W 119°26'612.2
2017-Oct-17 07:00N 33°34' W 119°32'611.5
2017-Oct-17 06:30N 33°36' W 119°39'611.5
2017-Oct-17 06:00N 33°36' W 119°46'510.6
2017-Oct-17 05:31N 33°36' W 119°52'612.2
2017-Oct-17 05:00N 33°36' W 119°60'815.6
2017-Oct-17 04:30N 33°36' W 120°09'815.5
2017-Oct-17 03:57N 33°37' W 120°19'715.5
2017-Oct-17 03:31N 33°42' W 120°25'815.6
2017-Oct-17 03:00N 33°47' W 120°33'815.6
2017-Oct-17 02:30N 33°51' W 120°40'815.8
2017-Oct-17 02:00N 33°55' W 120°48'815.7
2017-Oct-17 01:30N 34°02' W 120°54'816.2
2017-Oct-17 01:01N 34°08' W 120°59'816.0
2017-Oct-17 00:30N 34°15' W 121°04'815.4
2017-Oct-17 00:00N 34°22' W 121°08'815.2
2017-Oct-16 23:30N 34°29' W 121°13'815.8
2017-Oct-16 23:00N 34°35' W 121°18'815.0
2017-Oct-16 22:30N 34°42' W 121°23'612.6
2017-Oct-16 22:01N 34°47' W 121°27'815.5
2017-Oct-16 21:30N 34°54' W 121°31'815.5
2017-Oct-16 21:00N 35°01' W 121°36'815.7
2017-Oct-16 20:31N 35°07' W 121°41'815.6
2017-Oct-16 20:00N 35°14' W 121°46'815.4
2017-Oct-16 19:31N 35°21' W 121°51'815.4
2017-Oct-16 19:00N 35°27' W 121°56'815.4
2017-Oct-16 18:31N 35°34' W 122°00'815.5
2017-Oct-16 18:01N 35°40' W 122°05'4014.8
2017-Oct-16 15:18N 36°15' W 122°30'1316.2
2017-Oct-16 14:31N 36°26' W 122°37'116.6
2017-Oct-16 14:29N 36°27' W 122°37'1716.0
2017-Oct-16 13:24N 36°43' W 122°45'715.8
2017-Oct-16 12:57N 36°50' W 122°48'815.6
2017-Oct-16 12:25N 36°57' W 122°52'715.9
2017-Oct-16 12:00N 37°03' W 122°55'815.6
2017-Oct-16 11:30N 37°11' W 122°59'815.2
2017-Oct-16 11:00N 37°18' W 123°02'815.3
2017-Oct-16 10:30N 37°25' W 123°06'713.3
2017-Oct-16 10:00N 37°31' W 123°08'713.8
2017-Oct-16 09:30N 37°35' W 123°01'713.9
2017-Oct-16 09:00N 37°39' W 122°54'713.8
2017-Oct-16 08:30N 37°43' W 122°47'511.0
2017-Oct-16 08:00N 37°46' W 122°41'612.7
2017-Oct-16 07:30N 37°48' W 122°33'713.6
2017-Oct-16 07:00N 37°51' W 122°25'4 7.9
2017-Oct-16 06:30N 37°55' W 122°25'1 2.1
2017-Oct-16 05:59N 37°56' W 122°25'0 0.0
2017-Oct-16 05:29N 37°56' W 122°25'0 0.0
2017-Oct-16 04:59N 37°56' W 122°25'0 0.0
2017-Oct-16 04:29N 37°56' W 122°25'0 0.0
2017-Oct-16 03:59N 37°56' W 122°25'0 0.0
2017-Oct-16 03:29N 37°56' W 122°25'0 0.0
2017-Oct-16 02:59N 37°56' W 122°25'0 0.0
2017-Oct-16 02:29N 37°56' W 122°25'0 0.0
2017-Oct-16 01:59N 37°56' W 122°25'0 0.0
2017-Oct-16 01:29N 37°56' W 122°25'0 0.0
2017-Oct-16 00:59N 37°56' W 122°25'0 0.0
2017-Oct-16 00:26N 37°56' W 122°25'0 0.0
2017-Oct-15 23:59N 37°56' W 122°25'0 0.0
2017-Oct-15 23:29N 37°56' W 122°25'0 0.0
2017-Oct-15 22:59N 37°56' W 122°25'0 0.0
2017-Oct-15 22:29N 37°56' W 122°25'0 0.0
2017-Oct-15 21:59N 37°56' W 122°25'0 0.0
2017-Oct-15 21:29N 37°56' W 122°25'0 0.0
2017-Oct-15 20:59N 37°56' W 122°25'0 0.0
2017-Oct-15 19:32N 37°56' W 122°25'0 0.0
2017-Oct-15 19:26N 37°56' W 122°25'0 0.0
2017-Oct-15 11:50N 37°56' W 122°25'0 0.0
2017-Oct-15 11:20N 37°56' W 122°25'0 0.0
2017-Oct-15 10:08N 37°56' W 122°25'0 0.0
2017-Oct-15 07:02N 37°56' W 122°25'0 0.0
2017-Oct-15 06:56N 37°56' W 122°25'0 0.0
2017-Oct-15 06:23N 37°56' W 122°25'0 0.0
2017-Oct-15 05:56N 37°56' W 122°25'0 0.3
2017-Oct-15 05:31N 37°55' W 122°25'2 3.4
2017-Oct-15 05:00N 37°54' W 122°25'4 8.2
2017-Oct-15 04:31N 37°50' W 122°24'3 6.8
2017-Oct-15 04:00N 37°49' W 122°28'510.7
2017-Oct-15 03:31N 37°47' W 122°35'611.3
2017-Oct-15 03:01N 37°45' W 122°41'4 8.8
2017-Oct-15 02:31N 37°42' W 122°45'4 8.4
2017-Oct-15 02:01N 37°39' W 122°50'4 8.9
2017-Oct-15 01:30N 37°37' W 122°55'4 8.2
2017-Oct-15 01:01N 37°35' W 122°59'5 9.0
2017-Oct-15 00:30N 37°32' W 123°03'4 8.3
2017-Oct-15 00:00N 37°29' W 123°06'2 4.4
2017-Oct-14 23:30N 37°26' W 123°07'4 7.1
2017-Oct-14 23:00N 37°23' W 123°08'5 9.4
2017-Oct-14 22:30N 37°19' W 123°10'5 9.7
2017-Oct-14 22:00N 37°14' W 123°09'611.6
2017-Oct-14 21:30N 37°08' W 123°09'611.3
2017-Oct-14 21:00N 37°02' W 123°08'611.3
2017-Oct-14 20:30N 36°57' W 123°07'611.3
2017-Oct-14 20:00N 36°51' W 123°07'611.1
2017-Oct-14 19:30N 36°46' W 123°06'1211.1
2017-Oct-14 18:23N 36°33' W 123°04'4 9.7
2017-Oct-14 18:00N 36°30' W 123°03'813.8
2017-Oct-14 17:23N 36°22' W 122°59'613.9
2017-Oct-14 16:59N 36°16' W 122°57'1313.7
2017-Oct-14 16:01N 36°04' W 122°52'013.5
2017-Oct-14 16:00N 36°04' W 122°52'713.3
2017-Oct-14 15:30N 35°58' W 122°48'713.3
2017-Oct-14 15:00N 35°52' W 122°44'713.3
2017-Oct-14 14:30N 35°46' W 122°40'713.1
2017-Oct-14 14:00N 35°40' W 122°36'713.3
2017-Oct-14 13:30N 35°35' W 122°32'713.8
2017-Oct-14 13:01N 35°29' W 122°28'713.7
2017-Oct-14 12:31N 35°23' W 122°24'713.7
2017-Oct-14 12:00N 35°17' W 122°20'713.7
2017-Oct-14 11:30N 35°11' W 122°15'713.8
2017-Oct-14 11:00N 35°05' W 122°11'714.0
2017-Oct-14 10:30N 34°59' W 122°07'714.1
2017-Oct-14 10:00N 34°52' W 122°03'814.2
2017-Oct-14 09:26N 34°45' W 121°59'613.8
2017-Oct-14 09:00N 34°40' W 121°55'714.2
2017-Oct-14 08:30N 34°36' W 121°48'713.9
2017-Oct-14 08:00N 34°32' W 121°41'713.9
2017-Oct-14 07:30N 34°28' W 121°34'713.7
2017-Oct-14 07:00N 34°24' W 121°27'713.4
2017-Oct-14 06:30N 34°20' W 121°21'913.5
2017-Oct-14 05:52N 34°14' W 121°13'513.6
2017-Oct-14 05:29N 34°11' W 121°08'713.6
2017-Oct-14 05:00N 34°07' W 121°02'713.2
2017-Oct-14 04:30N 34°03' W 120°55'712.9
2017-Oct-14 03:59N 33°59' W 120°49'613.1
2017-Oct-14 03:30N 33°55' W 120°43'813.3
2017-Oct-14 02:54N 33°51' W 120°35'513.6
2017-Oct-14 02:30N 33°48' W 120°29'713.6
2017-Oct-14 01:59N 33°45' W 120°21'713.7
2017-Oct-14 01:31N 33°42' W 120°14'713.9
2017-Oct-14 01:00N 33°40' W 120°06'714.2
2017-Oct-14 00:30N 33°38' W 119°58'714.5
2017-Oct-14 00:01N 33°37' W 119°50'914.8
2017-Oct-13 23:24N 33°34' W 119°39'614.5
2017-Oct-13 23:00N 33°32' W 119°33'815.1
2017-Oct-13 22:31N 33°30' W 119°24'612.8
2017-Oct-13 22:00N 33°26' W 119°19'714.2
2017-Oct-13 21:31N 33°20' W 119°14'714.6
2017-Oct-13 21:00N 33°16' W 119°07'714.8
2017-Oct-13 20:30N 33°15' W 118°58'612.6
2017-Oct-13 20:00N 33°14' W 118°50'611.6
2017-Oct-13 19:30N 33°14' W 118°43'611.4
2017-Oct-13 19:01N 33°12' W 118°37'611.7
2017-Oct-13 18:31N 33°10' W 118°30'611.8
2017-Oct-13 18:01N 33°08' W 118°24'611.5
2017-Oct-13 17:30N 33°06' W 118°17'611.4
2017-Oct-13 17:01N 33°06' W 118°10'611.4
2017-Oct-13 16:31N 33°05' W 118°04'611.2
2017-Oct-13 16:00N 33°04' W 117°57'3 6.0
2017-Oct-13 15:30N 33°04' W 117°54'2 3.2
2017-Oct-13 15:00N 33°05' W 117°52'1 2.6
2017-Oct-13 14:30N 33°06' W 117°51'0 0.4
2017-Oct-13 14:00N 33°06' W 117°51'1 1.5
2017-Oct-13 13:30N 33°05' W 117°50'1 1.0
2017-Oct-13 13:00N 33°05' W 117°50'0 0.9
2017-Oct-13 12:30N 33°04' W 117°50'0 1.0
2017-Oct-13 12:01N 33°04' W 117°50'1 1.1
2017-Oct-13 11:30N 33°03' W 117°50'1 1.1
2017-Oct-13 11:00N 33°03' W 117°50'1 1.0
2017-Oct-13 10:31N 33°02' W 117°50'1 1.0
2017-Oct-13 10:00N 33°02' W 117°50'0 1.0
2017-Oct-13 09:30N 33°01' W 117°50'0 1.0
2017-Oct-13 09:01N 33°01' W 117°50'0 1.0
2017-Oct-13 08:31N 33°00' W 117°49'0 0.9
2017-Oct-13 08:01N 32°60' W 117°49'0 0.9
2017-Oct-13 07:30N 32°59' W 117°49'0 0.9
2017-Oct-13 07:00N 32°59' W 117°48'0 0.9
2017-Oct-13 06:31N 32°59' W 117°48'0 0.8
2017-Oct-13 06:00N 32°58' W 117°48'0 1.0
2017-Oct-13 05:31N 32°58' W 117°48'0 0.8
2017-Oct-13 05:00N 32°58' W 117°47'0 0.6
2017-Oct-13 04:30N 32°58' W 117°47'0 0.6
2017-Oct-13 04:01N 32°57' W 117°47'0 0.4
2017-Oct-13 03:30N 32°57' W 117°47'0 0.5
2017-Oct-13 03:00N 32°57' W 117°47'0 0.5
2017-Oct-13 02:30N 32°57' W 117°48'0 0.5
2017-Oct-13 02:00N 32°57' W 117°48'0 0.8
2017-Oct-13 01:30N 32°58' W 117°48'0 0.8
2017-Oct-13 01:01N 32°58' W 117°49'0 0.8
2017-Oct-13 00:30N 32°58' W 117°49'0 0.7
2017-Oct-13 00:00N 32°59' W 117°49'0 0.7
2017-Oct-12 23:30N 32°59' W 117°49'0 0.7
2017-Oct-12 23:00N 32°59' W 117°49'0 0.6
2017-Oct-12 22:30N 32°60' W 117°50'0 0.7
2017-Oct-12 22:01N 32°60' W 117°50'0 0.7
2017-Oct-12 21:30N 33°00' W 117°50'0 0.6
2017-Oct-12 21:00N 33°00' W 117°50'0 0.6
2017-Oct-12 20:30N 33°01' W 117°51'1 1.3
2017-Oct-12 20:00N 33°01' W 117°51'1 2.8
2017-Oct-12 19:31N 33°02' W 117°52'2 3.9
2017-Oct-12 19:00N 33°04' W 117°53'2 4.4
2017-Oct-12 18:31N 33°06' W 117°55'2 4.9
2017-Oct-12 18:00N 33°08' W 117°56'3 6.2
2017-Oct-12 17:31N 33°10' W 117°59'1 2.2
2017-Oct-12 17:01N 33°11' W 117°59'0 0.5
2017-Oct-12 16:31N 33°11' W 117°59'0 0.6
2017-Oct-12 16:01N 33°11' W 117°59'1 2.7
2017-Oct-12 15:30N 33°12' W 117°58'1 2.4
2017-Oct-12 15:00N 33°12' W 117°57'0 0.2
2017-Oct-12 14:30N 33°12' W 117°56'5 9.3
2017-Oct-12 14:01N 33°13' W 117°51'4 8.2
2017-Oct-12 13:30N 33°14' W 117°46'0 0.8
2017-Oct-12 13:00N 33°14' W 117°47'0 0.6
2017-Oct-12 12:31N 33°13' W 117°47'0 0.6
2017-Oct-12 12:01N 33°13' W 117°47'0 0.7
2017-Oct-12 11:30N 33°13' W 117°47'0 0.6
2017-Oct-12 11:00N 33°13' W 117°47'0 0.5
2017-Oct-12 10:30N 33°12' W 117°47'0 0.3
2017-Oct-12 10:00N 33°12' W 117°47'0 0.4
2017-Oct-12 09:31N 33°12' W 117°47'0 0.2
2017-Oct-12 09:01N 33°12' W 117°47'0 0.3
2017-Oct-12 08:30N 33°12' W 117°47'0 0.3
2017-Oct-12 08:01N 33°12' W 117°47'0 0.3
2017-Oct-12 07:31N 33°12' W 117°47'0 0.3
2017-Oct-12 07:00N 33°11' W 117°47'0 0.4
2017-Oct-12 06:30N 33°11' W 117°47'0 0.3
2017-Oct-12 06:00N 33°11' W 117°47'0 0.4
2017-Oct-12 05:31N 33°11' W 117°47'0 0.3
2017-Oct-12 05:00N 33°11' W 117°48'0 0.4
2017-Oct-12 04:30N 33°11' W 117°48'0 0.5
2017-Oct-12 04:00N 33°11' W 117°48'0 0.6
2017-Oct-12 03:30N 33°10' W 117°48'0 0.8
2017-Oct-12 03:01N 33°10' W 117°49'0 0.6
2017-Oct-12 02:30N 33°10' W 117°49'0 0.9
2017-Oct-12 02:01N 33°10' W 117°50'0 0.8
2017-Oct-12 01:30N 33°10' W 117°50'0 0.9
2017-Oct-12 01:01N 33°10' W 117°50'1 1.1
2017-Oct-12 00:31N 33°09' W 117°51'1 2.3
2017-Oct-12 00:00N 33°09' W 117°50'611.2
2017-Oct-11 23:30N 33°10' W 117°43'2 4.9
2017-Oct-11 23:00N 33°10' W 117°40'0 0.3
2017-Oct-11 22:30N 33°10' W 117°40'0 0.3
2017-Oct-11 22:00N 33°10' W 117°40'0 0.4
2017-Oct-11 21:31N 33°10' W 117°41'0 0.5
2017-Oct-11 21:00N 33°10' W 117°41'0 0.5
2017-Oct-11 20:30N 33°11' W 117°41'0 0.4
2017-Oct-11 20:01N 33°11' W 117°41'0 0.6
2017-Oct-11 19:30N 33°11' W 117°42'0 0.6
2017-Oct-11 19:01N 33°11' W 117°42'0 0.6
2017-Oct-11 18:30N 33°11' W 117°43'0 0.7
2017-Oct-11 18:01N 33°11' W 117°43'0 0.8
2017-Oct-11 17:30N 33°11' W 117°43'0 0.8
2017-Oct-11 17:01N 33°11' W 117°44'39 2.3
2017-Oct-11 00:00N 33°10' W 118°31'611.6
2017-Oct-10 23:30N 33°12' W 118°37'510.9
2017-Oct-10 23:00N 33°14' W 118°43'611.2
2017-Oct-10 22:30N 33°14' W 118°50'510.1
2017-Oct-10 22:00N 33°15' W 118°56'510.4
2017-Oct-10 21:30N 33°15' W 119°02'611.8
2017-Oct-10 21:00N 33°16' W 119°09'611.3
2017-Oct-10 20:30N 33°20' W 119°14'611.1
2017-Oct-10 20:00N 33°24' W 119°18'611.2
2017-Oct-10 19:30N 33°28' W 119°23'713.1
2017-Oct-10 19:00N 33°31' W 119°29'815.6
2017-Oct-10 18:30N 33°35' W 119°38'815.8
2017-Oct-10 18:00N 33°36' W 119°47'714.6
2017-Oct-10 17:30N 33°37' W 119°56'612.3
2017-Oct-10 17:00N 33°38' W 120°03'612.4
2017-Oct-10 16:31N 33°38' W 120°11'611.6
2017-Oct-10 16:00N 33°38' W 120°18'4 8.5
2017-Oct-10 15:30N 33°41' W 120°22'713.4
2017-Oct-10 15:00N 33°44' W 120°29'1515.3
2017-Oct-10 14:00N 33°53' W 120°44'714.9
2017-Oct-10 13:30N 33°58' W 120°51'815.5
2017-Oct-10 13:00N 34°05' W 120°55'815.7
2017-Oct-10 12:30N 34°12' W 120°60'815.3
2017-Oct-10 12:00N 34°18' W 121°04'815.2
2017-Oct-10 11:30N 34°25' W 121°09'815.4
2017-Oct-10 11:00N 34°31' W 121°14'815.5
2017-Oct-10 10:30N 34°38' W 121°19'815.3
2017-Oct-10 10:00N 34°44' W 121°24'815.7
2017-Oct-10 09:30N 34°51' W 121°28'815.1
2017-Oct-10 09:00N 34°57' W 121°34'815.9
2017-Oct-10 08:31N 35°04' W 121°39'714.9
2017-Oct-10 08:00N 35°10' W 121°44'714.7
2017-Oct-10 07:30N 35°16' W 121°49'815.3
2017-Oct-10 07:00N 35°23' W 121°53'815.7
2017-Oct-10 06:30N 35°30' W 121°58'815.8
2017-Oct-10 06:00N 35°37' W 122°03'815.5
2017-Oct-10 05:30N 35°43' W 122°08'3815.4
2017-Oct-10 03:03N 36°16' W 122°31'215.4
2017-Oct-10 02:54N 36°18' W 122°32'615.7
2017-Oct-10 02:30N 36°24' W 122°35'715.0
2017-Oct-10 02:00N 36°31' W 122°39'3114.5
2017-Oct-09 23:52N 36°60' W 122°53'513.7
2017-Oct-09 23:30N 37°04' W 122°55'714.0
2017-Oct-09 23:00N 37°11' W 122°59'714.1
2017-Oct-09 22:30N 37°17' W 123°02'714.3
2017-Oct-09 22:00N 37°24' W 123°05'714.2
2017-Oct-09 21:31N 37°31' W 123°08'510.8
2017-Oct-09 21:01N 37°35' W 123°03'712.9
2017-Oct-09 20:30N 37°38' W 122°56'612.4
2017-Oct-09 20:00N 37°41' W 122°49'611.6
2017-Oct-09 19:30N 37°45' W 122°44'3 5.6
2017-Oct-09 19:00N 37°46' W 122°40'611.1
2017-Oct-09 18:30N 37°47' W 122°34'611.1
2017-Oct-09 18:00N 37°50' W 122°27'4 8.0
2017-Oct-09 17:30N 37°54' W 122°25'2 3.8
2017-Oct-09 16:59N 37°56' W 122°25'0 0.0
2017-Oct-09 16:29N 37°56' W 122°25'0 0.0
2017-Oct-09 15:50N 37°56' W 122°25'0 0.0
2017-Oct-09 15:20N 37°56' W 122°25'0 0.0
2017-Oct-09 14:50N 37°56' W 122°25'0 0.0
2017-Oct-09 14:23N 37°56' W 122°25'0 0.0
2017-Oct-09 13:59N 37°56' W 122°25'0 0.0
2017-Oct-09 13:29N 37°56' W 122°25'0 0.0
2017-Oct-09 12:59N 37°56' W 122°25'0 0.0
2017-Oct-09 12:29N 37°56' W 122°25'0 0.0
2017-Oct-09 11:59N 37°56' W 122°25'0 0.0
2017-Oct-09 11:20N 37°56' W 122°25'0 0.0
2017-Oct-09 10:44N 37°56' W 122°25'0 0.0
2017-Oct-09 10:29N 37°56' W 122°25'0 0.0
2017-Oct-09 09:59N 37°56' W 122°25'0 0.0
2017-Oct-09 09:29N 37°56' W 122°25'0 0.0
2017-Oct-09 08:59N 37°56' W 122°25'0 0.0
2017-Oct-09 08:26N 37°56' W 122°25'  

Dump ship's entire track history